• Join FlightAware (Why Join?)
  • Login
  • US Flag 
12:49PM EDT


 

Airport Tracker/Info


-or-


 

Live Flight TrackerFlight Track Log ✈ SWA1841 ✈ 15-Apr-2013 ✈ KHOU - KECP

Flight Track Log - Related Links

Times and Time Zones

All times are in EDT time to prevent confusion due to time zone crossing. See the SWA1841 flight status page for this flight to view local times or setup timezone preferences in your user account.

Time Position Orientation Groundspeed Altitude Reporting Facility
EDT Latitude Longitude Course Direction KTS MPH feet Rate Location/Type
08:56PM 29.5947 -95.2350 146° Southeast 189 217 3,400  Level Houston Center
08:57PM 29.5975 -95.1519 88° East 276 318 6,200 3,000 Climbing Houston Center
08:58PM 29.6114 -95.0656 80° East 282 325 9,600 3,120 Climbing Houston Center
08:59PM 29.6272 -94.9633 80° East 323 372 12,500 3,000 Climbing Houston Center
09:00PM 29.6444 -94.8469 80° East 366 421 15,800 3,360 Climbing Houston Center
09:01PM 29.6628 -94.7253 80° East 381 438 19,400 3,060 Climbing Houston Center
09:02PM 29.6825 -94.5981 80° East 402 463 22,100 2,460 Climbing Houston Center
09:03PM 29.7028 -94.4600 80° East 435 501 24,600 2,700 Climbing Houston Center
09:04PM 29.7153 -94.2869 85° East 458 527 27,700 2,820 Climbing Houston Center
09:05PM 29.7022 -94.1417 96° East 459 528 30,500 2,160 Climbing Houston Center
09:06PM 29.7261 -93.9956 79° East 469 540 32,200 1,200 Climbing Houston Center
09:07PM 29.7572 -93.8439 77° East 487 560 33,000 360 Climbing Houston Center
09:08PM 29.7878 -93.6881 77° East 499 574 33,000  Level Houston Center
09:09PM 29.8169 -93.5339 78° East 497 572 33,000 480 Level Houston Center
09:10PM 29.8475 -93.3786 77° East 498 573 34,000 1,200 Climbing Houston Center
09:11PM 29.8819 -93.2067 77° East 506 582 35,500 1,560 Climbing Houston Center
09:12PM 29.9117 -93.0453 78° East 514 592 37,200 1,560 Climbing Houston Center
09:13PM 29.9436 -92.8872 77° East 512 589 38,800 1,560 Climbing Houston Center
09:14PM 29.9797 -92.6956 78° East 512 589 40,500 1,020 Climbing Houston Center
09:15PM 30.0097 -92.5386 78° East 508 585 41,000 240 Climbing Houston Center
09:16PM 30.0397 -92.3792 78° East 509 586 41,000  Level Houston Center
09:17PM 30.0697 -92.2200 78° East 512 589 41,000  Level Houston Center
09:18PM 30.0997 -92.0625 78° East 507 583 41,000  Level Houston Center
09:20PM 30.1275 -91.9061 78° East 503 579 41,000  Level Houston Center
09:21PM 30.1561 -91.7483 78° East 503 579 41,000  Level Houston Center
09:22PM 30.1883 -91.5878 77° East 512 589 41,000  Level Houston Center
09:23PM 30.2236 -91.3975 78° East 510 587 41,000  Level Houston Center
09:24PM 30.2503 -91.2378 79° East 508 585 41,000  Level Houston Center
09:25PM 30.2789 -91.0769 78° East 510 587 41,000  Level Houston Center
09:26PM 30.3061 -90.9167 79° East 509 586 41,000  Level Houston Center
09:27PM 30.3350 -90.7561 78° East 510 587 41,000  Level Houston Center
09:28PM 30.3628 -90.5950 79° East 509 586 41,000  Level Houston Center
09:29PM 30.3897 -90.4344 79° East 509 586 41,000 -300 Level Houston Center
09:30PM 30.4169 -90.2736 79° East 508 585 40,400 -840 Descending Houston Center
09:31PM 30.4450 -90.1119 79° East 510 587 39,400 -960 Descending Houston Center
09:32PM 30.4717 -89.9486 79° East 511 588 38,500 -960 Descending Houston Center
09:33PM 30.5017 -89.7831 78° East 513 590 37,500 -780 Descending Houston Center
09:34PM 30.5267 -89.6169 80° East 511 588 37,000 -780 Descending Houston Center
09:35PM 30.5519 -89.4583 79° East 498 573 36,000 -720 Descending Houston Center
09:36PM 30.5767 -89.3025 80° East 491 565 35,600 -840 Descending Houston Center
09:37PM 30.6033 -89.1197 80° East 480 552 34,400 -1,140 Descending Houston Center
09:38PM 30.6269 -88.9717 79° East 470 541 33,400 -900 Descending Houston Center
09:39PM 30.6497 -88.8289 79° East 474 545 32,600 -900 Descending Houston Center
09:40PM 30.6736 -88.6806 79° East 472 543 31,600 -1,020 Descending Houston Center
09:41PM 30.6964 -88.5325 80° East 470 541 30,600 -1,080 Descending Houston Center
09:42PM 30.7214 -88.3767 79° East 463 533 29,500 -1,080 Descending Houston Center
09:43PM 30.7328 -88.2308 85° East 455 524 28,500 -1,020 Descending Houston Center
09:44PM 30.7417 -88.0869 86° East 449 517 27,500 -1,020 Descending Houston Center
09:45PM 30.7511 -87.9472 85° East 435 501 26,500 -1,020 Descending Houston Center
09:46PM 30.7597 -87.8089 86° East 428 493 25,500 -780 Descending Houston Center
09:47PM 30.7700 -87.6631 85° East 420 483 25,000 -300 Descending Houston Center
09:48PM 30.7769 -87.5322 86° East 418 481 25,000  Level Jacksonville Center
09:49PM 30.7861 -87.3972 85° East 418 481 25,000  Level Jacksonville Center
09:50PM 30.7928 -87.2622 87° East 418 481 25,000 -300 Level Jacksonville Center
09:51PM 30.8014 -87.1319 86° East 418 481 24,400 -1,200 Descending Jacksonville Center
09:52PM 30.8078 -87.0017 87° East 412 474 22,600 -1,860 Descending Jacksonville Center
09:53PM 30.8181 -86.8764 85° East 400 460 20,700 -1,920 Descending Jacksonville Center
09:54PM 30.8217 -86.7556 88° East 389 448 18,800 -1,860 Descending Jacksonville Center
09:55PM 30.8233 -86.6322 89° East 377 434 17,000 -1,860 Descending Jacksonville Center
09:56PM 30.8225 -86.5161 90° East 371 427 15,100 -1,860 Descending Jacksonville Center
09:57PM 30.8194 -86.4025 92° East 359 413 13,300 -1,800 Descending Jacksonville Center
09:58PM 30.8142 -86.2933 93° East 348 400 11,600 -1,440 Descending Jacksonville Center
09:59PM 30.8147 -86.1894 90° East 336 387 10,500 -1,440 Descending Jacksonville Center
10:00PM 30.7878 -86.1039 110° East 317 365 8,800 -1,620 Descending Jacksonville Center
10:01PM 30.7289 -86.0367 136° Southeast 286 329 7,300 -1,500 Descending Jacksonville Center
10:02PM 30.6675 -85.9814 142° Southeast 280 322 5,800 -1,500 Descending Jacksonville Center
10:03PM 30.5997 -85.9358 150° Southeast 280 322 4,400 -1,320 Descending Jacksonville Center
10:04PM 30.5381 -85.8953 150° Southeast 270 311 3,200 -720 Descending Jacksonville Center
10:05PM 30.4867 -85.8575 148° Southeast 246 283 3,000 -660 Descending Jacksonville Center
10:06PM 30.4475 -85.8347 153° Southeast 195 224 1,900 -1,020 Descending Jacksonville Center
10:07PM 30.4125 -85.8192 159° South 156 180 1,000 -780 Descending Jacksonville Center
10:08PM 30.3814 -85.8061 160° South 136 157 400 -420 Descending Jacksonville Center
10:09PM 30.3400 -85.7903 162° South 130 150 200 -240 Descending Jacksonville Center
10:11PM 30.3500 -85.7833 North  Level FlightAware Approximate
10:18PM 30.3582 -85.7956 North  Level Estimated
10:19PM 30.3582 -85.7956 North  Level Estimated
10:20PM 30.3582 -85.7956 North  Level Estimated
10:21PM 30.3582 -85.7956 North  Level Estimated
10:22PM 30.3582 -85.7956 North  Level Estimated
10:23PM 30.3582 -85.7956 North  Level Estimated
10:24PM 30.3582 -85.7956 North  Level Estimated
10:25PM 30.3582 -85.7956 North  Level Estimated
10:26PM 30.3582 -85.7956 North  Level Estimated